sensor_id;sensor_type;location;lat;lon;timestamp;P1;durP1;ratioP1;P2;durP2;ratioP2
16037;SDS011;8123;50.906;6.172;2023-03-19T00:01:06;4.37;;;2.93;;
16037;SDS011;8123;50.906;6.172;2023-03-19T00:03:32;2.50;;;2.20;;
16037;SDS011;8123;50.906;6.172;2023-03-19T00:05:59;5.27;;;3.50;;
16037;SDS011;8123;50.906;6.172;2023-03-19T00:08:26;2.87;;;2.67;;
16037;SDS011;8123;50.906;6.172;2023-03-19T00:10:52;2.90;;;2.60;;
16037;SDS011;8123;50.906;6.172;2023-03-19T00:13:18;3.00;;;2.80;;
16037;SDS011;8123;50.906;6.172;2023-03-19T00:15:44;7.23;;;3.13;;
16037;SDS011;8123;50.906;6.172;2023-03-19T00:18:11;3.17;;;2.93;;
16037;SDS011;8123;50.906;6.172;2023-03-19T00:20:36;5.30;;;3.03;;
16037;SDS011;8123;50.906;6.172;2023-03-19T00:23:02;3.17;;;2.87;;
16037;SDS011;8123;50.906;6.172;2023-03-19T00:25:28;4.20;;;3.27;;
16037;SDS011;8123;50.906;6.172;2023-03-19T00:27:54;3.83;;;2.70;;
16037;SDS011;8123;50.906;6.172;2023-03-19T00:30:20;3.53;;;3.23;;
16037;SDS011;8123;50.906;6.172;2023-03-19T00:32:47;4.13;;;3.67;;
16037;SDS011;8123;50.906;6.172;2023-03-19T00:35:13;4.07;;;3.50;;
16037;SDS011;8123;50.906;6.172;2023-03-19T00:37:38;3.77;;;3.20;;
16037;SDS011;8123;50.906;6.172;2023-03-19T00:40:04;3.50;;;3.20;;
16037;SDS011;8123;50.906;6.172;2023-03-19T00:42:31;5.23;;;3.90;;
16037;SDS011;8123;50.906;6.172;2023-03-19T00:44:57;4.63;;;4.00;;
16037;SDS011;8123;50.906;6.172;2023-03-19T00:47:23;4.60;;;3.93;;
16037;SDS011;8123;50.906;6.172;2023-03-19T00:49:49;11.63;;;4.90;;
16037;SDS011;8123;50.906;6.172;2023-03-19T00:52:15;4.53;;;4.10;;
16037;SDS011;8123;50.906;6.172;2023-03-19T00:54:41;6.10;;;4.20;;
16037;SDS011;8123;50.906;6.172;2023-03-19T00:57:06;9.00;;;4.97;;
16037;SDS011;8123;50.906;6.172;2023-03-19T00:59:32;5.77;;;5.17;;
16037;SDS011;8123;50.906;6.172;2023-03-19T01:01:58;11.10;;;5.17;;
16037;SDS011;8123;50.906;6.172;2023-03-19T01:04:26;5.60;;;4.47;;
16037;SDS011;8123;50.906;6.172;2023-03-19T01:06:52;8.33;;;5.40;;
16037;SDS011;8123;50.906;6.172;2023-03-19T01:09:17;9.97;;;5.50;;
16037;SDS011;8123;50.906;6.172;2023-03-19T01:11:43;15.40;;;5.20;;
16037;SDS011;8123;50.906;6.172;2023-03-19T01:14:09;13.10;;;5.50;;
16037;SDS011;8123;50.906;6.172;2023-03-19T01:16:34;7.23;;;4.60;;
16037;SDS011;8123;50.906;6.172;2023-03-19T01:19:00;5.47;;;5.00;;
16037;SDS011;8123;50.906;6.172;2023-03-19T01:21:27;10.20;;;5.70;;
16037;SDS011;8123;50.906;6.172;2023-03-19T01:23:58;9.90;;;5.03;;
16037;SDS011;8123;50.906;6.172;2023-03-19T01:26:24;5.30;;;4.23;;
16037;SDS011;8123;50.906;6.172;2023-03-19T01:28:50;14.13;;;5.63;;
16037;SDS011;8123;50.906;6.172;2023-03-19T01:31:16;10.47;;;5.13;;
16037;SDS011;8123;50.906;6.172;2023-03-19T01:33:41;4.57;;;4.17;;
16037;SDS011;8123;50.906;6.172;2023-03-19T01:36:07;10.83;;;4.40;;
16037;SDS011;8123;50.906;6.172;2023-03-19T01:38:33;6.80;;;4.77;;
16037;SDS011;8123;50.906;6.172;2023-03-19T01:40:59;8.63;;;4.60;;
16037;SDS011;8123;50.906;6.172;2023-03-19T01:43:27;7.40;;;4.80;;
16037;SDS011;8123;50.906;6.172;2023-03-19T01:45:56;9.50;;;4.33;;
16037;SDS011;8123;50.906;6.172;2023-03-19T01:51:05;8.33;;;4.40;;
16037;SDS011;8123;50.906;6.172;2023-03-19T01:53:33;9.50;;;4.10;;
16037;SDS011;8123;50.906;6.172;2023-03-19T01:56:02;6.63;;;4.03;;
16037;SDS011;8123;50.906;6.172;2023-03-19T01:58:32;4.13;;;3.70;;
16037;SDS011;8123;50.906;6.172;2023-03-19T02:00:58;4.27;;;3.87;;
16037;SDS011;8123;50.906;6.172;2023-03-19T02:03:25;3.90;;;3.60;;
16037;SDS011;8123;50.906;6.172;2023-03-19T02:05:51;12.03;;;4.20;;
16037;SDS011;8123;50.906;6.172;2023-03-19T02:08:19;4.20;;;3.03;;
16037;SDS011;8123;50.906;6.172;2023-03-19T02:10:47;12.57;;;4.23;;
16037;SDS011;8123;50.906;6.172;2023-03-19T02:13:14;7.70;;;3.27;;
16037;SDS011;8123;50.906;6.172;2023-03-19T02:15:40;5.17;;;3.47;;
16037;SDS011;8123;50.906;6.172;2023-03-19T02:18:06;3.30;;;3.00;;
16037;SDS011;8123;50.906;6.172;2023-03-19T02:20:40;6.47;;;3.23;;
16037;SDS011;8123;50.906;6.172;2023-03-19T02:28:13;3.60;;;3.17;;
16037;SDS011;8123;50.906;6.172;2023-03-19T02:30:41;5.50;;;3.43;;
16037;SDS011;8123;50.906;6.172;2023-03-19T02:33:15;4.50;;;3.30;;
16037;SDS011;8123;50.906;6.172;2023-03-19T02:35:43;3.93;;;2.93;;
16037;SDS011;8123;50.906;6.172;2023-03-19T02:38:11;3.17;;;2.80;;
16037;SDS011;8123;50.906;6.172;2023-03-19T02:43:33;7.17;;;3.60;;
16037;SDS011;8123;50.906;6.172;2023-03-19T02:46:03;3.57;;;3.20;;
16037;SDS011;8123;50.906;6.172;2023-03-19T02:48:32;6.13;;;2.70;;
16037;SDS011;8123;50.906;6.172;2023-03-19T02:50:58;5.17;;;3.60;;
16037;SDS011;8123;50.906;6.172;2023-03-19T02:53:24;2.83;;;2.40;;
16037;SDS011;8123;50.906;6.172;2023-03-19T02:55:50;4.97;;;3.60;;
16037;SDS011;8123;50.906;6.172;2023-03-19T02:58:15;4.77;;;3.13;;
16037;SDS011;8123;50.906;6.172;2023-03-19T03:00:44;3.37;;;2.90;;
16037;SDS011;8123;50.906;6.172;2023-03-19T03:03:10;2.73;;;2.60;;
16037;SDS011;8123;50.906;6.172;2023-03-19T03:05:36;3.50;;;3.20;;
16037;SDS011;8123;50.906;6.172;2023-03-19T03:08:02;3.17;;;2.97;;
16037;SDS011;8123;50.906;6.172;2023-03-19T03:10:28;4.90;;;3.27;;
16037;SDS011;8123;50.906;6.172;2023-03-19T03:12:54;5.67;;;3.17;;
16037;SDS011;8123;50.906;6.172;2023-03-19T03:15:20;3.10;;;2.90;;
16037;SDS011;8123;50.906;6.172;2023-03-19T03:17:46;3.10;;;2.80;;
16037;SDS011;8123;50.906;6.172;2023-03-19T03:20:13;3.70;;;3.40;;
16037;SDS011;8123;50.906;6.172;2023-03-19T03:22:43;3.50;;;3.20;;
16037;SDS011;8123;50.906;6.172;2023-03-19T03:25:10;3.33;;;3.13;;
16037;SDS011;8123;50.906;6.172;2023-03-19T03:27:36;3.40;;;3.20;;
16037;SDS011;8123;50.906;6.172;2023-03-19T03:30:05;3.60;;;3.37;;
16037;SDS011;8123;50.906;6.172;2023-03-19T03:32:33;4.93;;;2.97;;
16037;SDS011;8123;50.906;6.172;2023-03-19T03:35:02;3.07;;;2.87;;
16037;SDS011;8123;50.906;6.172;2023-03-19T03:37:31;3.97;;;3.10;;
16037;SDS011;8123;50.906;6.172;2023-03-19T03:39:56;3.17;;;2.87;;
16037;SDS011;8123;50.906;6.172;2023-03-19T03:42:22;7.17;;;3.07;;
16037;SDS011;8123;50.906;6.172;2023-03-19T03:44:48;4.50;;;3.20;;
16037;SDS011;8123;50.906;6.172;2023-03-19T03:47:13;4.30;;;3.27;;
16037;SDS011;8123;50.906;6.172;2023-03-19T03:49:40;5.33;;;2.60;;
16037;SDS011;8123;50.906;6.172;2023-03-19T03:52:05;4.33;;;3.93;;
16037;SDS011;8123;50.906;6.172;2023-03-19T03:54:33;3.27;;;3.00;;
16037;SDS011;8123;50.906;6.172;2023-03-19T03:57:09;4.97;;;2.93;;
16037;SDS011;8123;50.906;6.172;2023-03-19T03:59:36;3.17;;;2.87;;
16037;SDS011;8123;50.906;6.172;2023-03-19T04:02:01;9.23;;;3.33;;
16037;SDS011;8123;50.906;6.172;2023-03-19T04:04:27;3.47;;;3.00;;
16037;SDS011;8123;50.906;6.172;2023-03-19T04:06:53;3.07;;;2.97;;
16037;SDS011;8123;50.906;6.172;2023-03-19T04:09:19;3.20;;;3.00;;
16037;SDS011;8123;50.906;6.172;2023-03-19T04:11:44;3.97;;;3.57;;
16037;SDS011;8123;50.906;6.172;2023-03-19T04:14:10;3.60;;;3.40;;
16037;SDS011;8123;50.906;6.172;2023-03-19T04:16:36;4.03;;;3.50;;
16037;SDS011;8123;50.906;6.172;2023-03-19T04:19:02;6.73;;;3.37;;
16037;SDS011;8123;50.906;6.172;2023-03-19T04:21:27;5.70;;;3.70;;
16037;SDS011;8123;50.906;6.172;2023-03-19T04:23:54;3.37;;;3.07;;
16037;SDS011;8123;50.906;6.172;2023-03-19T04:26:19;3.13;;;2.93;;
16037;SDS011;8123;50.906;6.172;2023-03-19T04:28:45;3.70;;;3.30;;
16037;SDS011;8123;50.906;6.172;2023-03-19T04:31:11;3.30;;;3.00;;
16037;SDS011;8123;50.906;6.172;2023-03-19T04:33:36;3.10;;;3.00;;
16037;SDS011;8123;50.906;6.172;2023-03-19T04:36:02;4.20;;;3.53;;
16037;SDS011;8123;50.906;6.172;2023-03-19T04:38:28;4.10;;;3.70;;
16037;SDS011;8123;50.906;6.172;2023-03-19T04:40:55;3.70;;;3.30;;
16037;SDS011;8123;50.906;6.172;2023-03-19T04:43:21;3.87;;;3.57;;
16037;SDS011;8123;50.906;6.172;2023-03-19T04:45:47;3.67;;;3.47;;
16037;SDS011;8123;50.906;6.172;2023-03-19T04:48:13;4.43;;;3.53;;
16037;SDS011;8123;50.906;6.172;2023-03-19T04:50:39;5.03;;;3.67;;
16037;SDS011;8123;50.906;6.172;2023-03-19T04:53:05;4.67;;;4.27;;
16037;SDS011;8123;50.906;6.172;2023-03-19T04:55:39;6.43;;;3.87;;
16037;SDS011;8123;50.906;6.172;2023-03-19T04:58:05;5.80;;;4.30;;
16037;SDS011;8123;50.906;6.172;2023-03-19T05:00:30;6.10;;;4.37;;
16037;SDS011;8123;50.906;6.172;2023-03-19T05:02:56;4.43;;;4.10;;
16037;SDS011;8123;50.906;6.172;2023-03-19T05:05:22;4.10;;;3.70;;
16037;SDS011;8123;50.906;6.172;2023-03-19T05:07:47;5.40;;;4.60;;
16037;SDS011;8123;50.906;6.172;2023-03-19T05:10:13;4.30;;;3.90;;
16037;SDS011;8123;50.906;6.172;2023-03-19T05:12:38;4.50;;;3.57;;
16037;SDS011;8123;50.906;6.172;2023-03-19T05:15:05;4.57;;;4.17;;
16037;SDS011;8123;50.906;6.172;2023-03-19T05:17:31;4.73;;;4.43;;
16037;SDS011;8123;50.906;6.172;2023-03-19T05:19:57;4.97;;;4.00;;
16037;SDS011;8123;50.906;6.172;2023-03-19T05:22:23;4.30;;;3.93;;
16037;SDS011;8123;50.906;6.172;2023-03-19T05:24:48;4.80;;;3.87;;
16037;SDS011;8123;50.906;6.172;2023-03-19T05:27:14;4.57;;;4.20;;
16037;SDS011;8123;50.906;6.172;2023-03-19T05:29:40;4.60;;;4.20;;
16037;SDS011;8123;50.906;6.172;2023-03-19T05:32:06;3.80;;;3.60;;
16037;SDS011;8123;50.906;6.172;2023-03-19T05:34:34;4.80;;;4.40;;
16037;SDS011;8123;50.906;6.172;2023-03-19T05:37:00;3.83;;;3.50;;
16037;SDS011;8123;50.906;6.172;2023-03-19T05:39:35;4.83;;;4.50;;
16037;SDS011;8123;50.906;6.172;2023-03-19T05:42:01;4.93;;;4.47;;
16037;SDS011;8123;50.906;6.172;2023-03-19T05:44:26;4.70;;;4.30;;
16037;SDS011;8123;50.906;6.172;2023-03-19T05:46:52;5.72;;;4.70;;
16037;SDS011;8123;50.906;6.172;2023-03-19T05:49:18;5.70;;;5.10;;
16037;SDS011;8123;50.906;6.172;2023-03-19T05:51:43;5.60;;;5.03;;
16037;SDS011;8123;50.906;6.172;2023-03-19T05:54:09;6.50;;;5.57;;
16037;SDS011;8123;50.906;6.172;2023-03-19T05:56:35;5.37;;;4.87;;
16037;SDS011;8123;50.906;6.172;2023-03-19T05:59:01;6.03;;;5.47;;
16037;SDS011;8123;50.906;6.172;2023-03-19T06:01:26;9.17;;;5.10;;
16037;SDS011;8123;50.906;6.172;2023-03-19T06:03:52;5.83;;;5.10;;
16037;SDS011;8123;50.906;6.172;2023-03-19T06:06:18;5.77;;;4.17;;
16037;SDS011;8123;50.906;6.172;2023-03-19T06:08:43;9.53;;;5.20;;
16037;SDS011;8123;50.906;6.172;2023-03-19T06:11:09;5.13;;;4.73;;
16037;SDS011;8123;50.906;6.172;2023-03-19T06:13:35;5.50;;;4.90;;
16037;SDS011;8123;50.906;6.172;2023-03-19T06:16:00;5.07;;;4.67;;
16037;SDS011;8123;50.906;6.172;2023-03-19T06:18:26;5.67;;;5.00;;
16037;SDS011;8123;50.906;6.172;2023-03-19T06:20:52;5.00;;;4.13;;
16037;SDS011;8123;50.906;6.172;2023-03-19T06:23:17;4.87;;;4.13;;
16037;SDS011;8123;50.906;6.172;2023-03-19T06:25:43;6.30;;;5.37;;
16037;SDS011;8123;50.906;6.172;2023-03-19T06:28:09;5.40;;;4.97;;
16037;SDS011;8123;50.906;6.172;2023-03-19T06:30:34;4.47;;;4.17;;
16037;SDS011;8123;50.906;6.172;2023-03-19T06:33:00;5.40;;;5.00;;
16037;SDS011;8123;50.906;6.172;2023-03-19T06:35:26;7.70;;;5.40;;
16037;SDS011;8123;50.906;6.172;2023-03-19T06:37:52;7.93;;;4.90;;
16037;SDS011;8123;50.906;6.172;2023-03-19T06:40:18;5.33;;;4.93;;
16037;SDS011;8123;50.906;6.172;2023-03-19T06:42:44;6.00;;;5.50;;
16037;SDS011;8123;50.906;6.172;2023-03-19T06:45:11;5.40;;;4.60;;
16037;SDS011;8123;50.906;6.172;2023-03-19T06:47:40;6.50;;;4.73;;
16037;SDS011;8123;50.906;6.172;2023-03-19T06:50:07;9.00;;;5.27;;
16037;SDS011;8123;50.906;6.172;2023-03-19T06:52:34;4.97;;;4.47;;
16037;SDS011;8123;50.906;6.172;2023-03-19T06:55:00;5.67;;;5.13;;
16037;SDS011;8123;50.906;6.172;2023-03-19T06:57:25;5.57;;;4.93;;
16037;SDS011;8123;50.906;6.172;2023-03-19T06:59:51;5.53;;;5.03;;
16037;SDS011;8123;50.906;6.172;2023-03-19T07:02:17;5.53;;;4.90;;
16037;SDS011;8123;50.906;6.172;2023-03-19T07:04:43;5.30;;;4.80;;
16037;SDS011;8123;50.906;6.172;2023-03-19T07:07:08;5.53;;;5.10;;
16037;SDS011;8123;50.906;6.172;2023-03-19T07:09:34;8.83;;;4.97;;
16037;SDS011;8123;50.906;6.172;2023-03-19T07:12:00;5.30;;;4.90;;
16037;SDS011;8123;50.906;6.172;2023-03-19T07:14:26;4.47;;;4.20;;
16037;SDS011;8123;50.906;6.172;2023-03-19T07:16:52;5.07;;;4.67;;
16037;SDS011;8123;50.906;6.172;2023-03-19T07:19:17;5.90;;;4.53;;
16037;SDS011;8123;50.906;6.172;2023-03-19T07:21:43;5.63;;;5.00;;
16037;SDS011;8123;50.906;6.172;2023-03-19T07:24:09;8.20;;;4.83;;
16037;SDS011;8123;50.906;6.172;2023-03-19T07:26:34;5.87;;;4.70;;
16037;SDS011;8123;50.906;6.172;2023-03-19T07:29:00;7.33;;;5.40;;
16037;SDS011;8123;50.906;6.172;2023-03-19T07:31:26;5.13;;;4.73;;
16037;SDS011;8123;50.906;6.172;2023-03-19T07:33:51;4.80;;;4.50;;
16037;SDS011;8123;50.906;6.172;2023-03-19T07:36:17;5.87;;;4.97;;
16037;SDS011;8123;50.906;6.172;2023-03-19T07:38:43;5.87;;;5.03;;
16037;SDS011;8123;50.906;6.172;2023-03-19T07:41:08;5.03;;;4.63;;
16037;SDS011;8123;50.906;6.172;2023-03-19T07:43:34;4.80;;;4.40;;
16037;SDS011;8123;50.906;6.172;2023-03-19T07:46:00;5.37;;;4.50;;
16037;SDS011;8123;50.906;6.172;2023-03-19T07:48:25;5.63;;;4.80;;
16037;SDS011;8123;50.906;6.172;2023-03-19T07:50:51;5.30;;;4.90;;
16037;SDS011;8123;50.906;6.172;2023-03-19T07:53:18;6.23;;;4.50;;
16037;SDS011;8123;50.906;6.172;2023-03-19T07:55:44;8.00;;;5.37;;
16037;SDS011;8123;50.906;6.172;2023-03-19T07:58:11;5.73;;;4.33;;
16037;SDS011;8123;50.906;6.172;2023-03-19T08:00:36;7.70;;;4.60;;
16037;SDS011;8123;50.906;6.172;2023-03-19T08:03:02;10.10;;;5.33;;
16037;SDS011;8123;50.906;6.172;2023-03-19T08:05:28;5.30;;;4.90;;
16037;SDS011;8123;50.906;6.172;2023-03-19T08:07:53;4.73;;;4.33;;
16037;SDS011;8123;50.906;6.172;2023-03-19T08:10:19;5.20;;;4.70;;
16037;SDS011;8123;50.906;6.172;2023-03-19T08:12:45;7.63;;;5.03;;
16037;SDS011;8123;50.906;6.172;2023-03-19T08:15:12;8.00;;;5.53;;
16037;SDS011;8123;50.906;6.172;2023-03-19T08:17:38;4.67;;;4.27;;
16037;SDS011;8123;50.906;6.172;2023-03-19T08:20:04;5.63;;;4.67;;
16037;SDS011;8123;50.906;6.172;2023-03-19T08:22:32;4.97;;;4.57;;
16037;SDS011;8123;50.906;6.172;2023-03-19T08:24:58;4.53;;;4.13;;
16037;SDS011;8123;50.906;6.172;2023-03-19T08:27:24;5.20;;;4.60;;
16037;SDS011;8123;50.906;6.172;2023-03-19T08:29:51;5.00;;;4.50;;
16037;SDS011;8123;50.906;6.172;2023-03-19T08:32:17;4.70;;;4.40;;
16037;SDS011;8123;50.906;6.172;2023-03-19T08:34:42;10.70;;;4.77;;
16037;SDS011;8123;50.906;6.172;2023-03-19T08:37:08;6.90;;;4.57;;
16037;SDS011;8123;50.906;6.172;2023-03-19T08:39:34;6.30;;;4.73;;
16037;SDS011;8123;50.906;6.172;2023-03-19T08:42:00;4.77;;;4.47;;
16037;SDS011;8123;50.906;6.172;2023-03-19T08:44:25;5.00;;;4.70;;
16037;SDS011;8123;50.906;6.172;2023-03-19T08:46:51;5.60;;;5.10;;
16037;SDS011;8123;50.906;6.172;2023-03-19T08:49:17;6.83;;;5.50;;
16037;SDS011;8123;50.906;6.172;2023-03-19T08:51:42;5.33;;;4.93;;
16037;SDS011;8123;50.906;6.172;2023-03-19T08:54:08;6.70;;;5.73;;
16037;SDS011;8123;50.906;6.172;2023-03-19T08:56:35;5.20;;;4.47;;
16037;SDS011;8123;50.906;6.172;2023-03-19T08:59:01;7.97;;;5.77;;
16037;SDS011;8123;50.906;6.172;2023-03-19T09:01:26;6.10;;;5.60;;
16037;SDS011;8123;50.906;6.172;2023-03-19T09:03:53;5.80;;;5.30;;
16037;SDS011;8123;50.906;6.172;2023-03-19T09:06:19;6.63;;;6.03;;
16037;SDS011;8123;50.906;6.172;2023-03-19T09:08:45;7.07;;;5.60;;
16037;SDS011;8123;50.906;6.172;2023-03-19T09:11:10;6.20;;;5.40;;
16037;SDS011;8123;50.906;6.172;2023-03-19T09:13:38;6.07;;;5.47;;
16037;SDS011;8123;50.906;6.172;2023-03-19T09:16:04;7.10;;;6.30;;
16037;SDS011;8123;50.906;6.172;2023-03-19T09:18:31;6.13;;;5.60;;
16037;SDS011;8123;50.906;6.172;2023-03-19T09:20:58;6.03;;;5.43;;
16037;SDS011;8123;50.906;6.172;2023-03-19T09:23:25;6.50;;;5.90;;
16037;SDS011;8123;50.906;6.172;2023-03-19T09:25:51;5.50;;;5.10;;
16037;SDS011;8123;50.906;6.172;2023-03-19T09:28:17;5.33;;;4.83;;
16037;SDS011;8123;50.906;6.172;2023-03-19T09:30:46;6.00;;;4.97;;
16037;SDS011;8123;50.906;6.172;2023-03-19T09:33:14;4.13;;;3.83;;
16037;SDS011;8123;50.906;6.172;2023-03-19T09:35:40;4.97;;;4.50;;
16037;SDS011;8123;50.906;6.172;2023-03-19T09:38:06;4.40;;;4.07;;
16037;SDS011;8123;50.906;6.172;2023-03-19T09:40:34;5.07;;;4.53;;
16037;SDS011;8123;50.906;6.172;2023-03-19T09:45:52;4.07;;;3.77;;
16037;SDS011;8123;50.906;6.172;2023-03-19T09:48:20;4.83;;;4.20;;
16037;SDS011;8123;50.906;6.172;2023-03-19T09:50:58;4.20;;;3.90;;
16037;SDS011;8123;50.906;6.172;2023-03-19T09:53:30;4.17;;;3.97;;
16037;SDS011;8123;50.906;6.172;2023-03-19T09:56:09;5.13;;;4.17;;
16037;SDS011;8123;50.906;6.172;2023-03-19T09:58:39;3.83;;;3.57;;
16037;SDS011;8123;50.906;6.172;2023-03-19T10:01:05;4.80;;;4.40;;
16037;SDS011;8123;50.906;6.172;2023-03-19T10:08:52;3.47;;;3.33;;
16037;SDS011;8123;50.906;6.172;2023-03-19T10:17:41;4.17;;;3.73;;
16037;SDS011;8123;50.906;6.172;2023-03-19T10:23:49;4.40;;;4.10;;
16037;SDS011;8123;50.906;6.172;2023-03-19T10:26:25;4.00;;;3.70;;
16037;SDS011;8123;50.906;6.172;2023-03-19T10:29:08;8.63;;;4.27;;
16037;SDS011;8123;50.906;6.172;2023-03-19T10:34:27;4.20;;;3.90;;
16037;SDS011;8123;50.906;6.172;2023-03-19T10:39:27;3.37;;;3.20;;
16037;SDS011;8123;50.906;6.172;2023-03-19T10:42:12;2.50;;;2.30;;
16037;SDS011;8123;50.906;6.172;2023-03-19T10:44:50;3.00;;;2.80;;
16037;SDS011;8123;50.906;6.172;2023-03-19T10:47:24;2.73;;;2.60;;
16037;SDS011;8123;50.906;6.172;2023-03-19T10:49:50;3.30;;;3.10;;
16037;SDS011;8123;50.906;6.172;2023-03-19T10:52:18;3.07;;;2.87;;
16037;SDS011;8123;50.906;6.172;2023-03-19T10:54:56;3.30;;;3.10;;
16037;SDS011;8123;50.906;6.172;2023-03-19T10:57:55;4.20;;;3.90;;
16037;SDS011;8123;50.906;6.172;2023-03-19T11:00:28;2.70;;;2.50;;
16037;SDS011;8123;50.906;6.172;2023-03-19T11:02:57;3.00;;;2.80;;
16037;SDS011;8123;50.906;6.172;2023-03-19T11:07:54;3.07;;;2.87;;
16037;SDS011;8123;50.906;6.172;2023-03-19T11:10:24;5.50;;;2.70;;
16037;SDS011;8123;50.906;6.172;2023-03-19T11:12:58;2.53;;;2.43;;
16037;SDS011;8123;50.906;6.172;2023-03-19T11:15:35;2.60;;;2.50;;
16037;SDS011;8123;50.906;6.172;2023-03-19T11:18:21;2.80;;;2.60;;
16037;SDS011;8123;50.906;6.172;2023-03-19T11:21:33;2.90;;;2.70;;
16037;SDS011;8123;50.906;6.172;2023-03-19T11:23:54;3.70;;;3.40;;
16037;SDS011;8123;50.906;6.172;2023-03-19T11:26:27;3.97;;;3.63;;
16037;SDS011;8123;50.906;6.172;2023-03-19T11:28:55;3.90;;;3.60;;
16037;SDS011;8123;50.906;6.172;2023-03-19T11:31:27;4.00;;;3.80;;
16037;SDS011;8123;50.906;6.172;2023-03-19T11:47:38;2.90;;;2.70;;
16037;SDS011;8123;50.906;6.172;2023-03-19T12:01:40;3.20;;;3.00;;
16037;SDS011;8123;50.906;6.172;2023-03-19T12:04:26;2.50;;;2.40;;
16037;SDS011;8123;50.906;6.172;2023-03-19T12:07:00;2.40;;;2.20;;
16037;SDS011;8123;50.906;6.172;2023-03-19T12:12:48;2.40;;;2.20;;
16037;SDS011;8123;50.906;6.172;2023-03-19T12:15:30;2.63;;;2.43;;
16037;SDS011;8123;50.906;6.172;2023-03-19T12:18:07;6.27;;;4.27;;
16037;SDS011;8123;50.906;6.172;2023-03-19T12:29:33;3.60;;;3.27;;
16037;SDS011;8123;50.906;6.172;2023-03-19T12:32:23;2.70;;;2.50;;
16037;SDS011;8123;50.906;6.172;2023-03-19T12:35:14;3.27;;;3.03;;
16037;SDS011;8123;50.906;6.172;2023-03-19T12:37:48;2.50;;;2.40;;
16037;SDS011;8123;50.906;6.172;2023-03-19T12:43:01;4.20;;;2.70;;
16037;SDS011;8123;50.906;6.172;2023-03-19T12:45:38;3.20;;;2.53;;
16037;SDS011;8123;50.906;6.172;2023-03-19T12:48:27;2.63;;;2.53;;
16037;SDS011;8123;50.906;6.172;2023-03-19T12:51:02;4.10;;;3.20;;
16037;SDS011;8123;50.906;6.172;2023-03-19T12:58:58;4.70;;;3.20;;
16037;SDS011;8123;50.906;6.172;2023-03-19T13:01:26;4.43;;;3.00;;
16037;SDS011;8123;50.906;6.172;2023-03-19T13:03:58;3.27;;;2.70;;
16037;SDS011;8123;50.906;6.172;2023-03-19T13:06:33;1.90;;;1.80;;
16037;SDS011;8123;50.906;6.172;2023-03-19T13:09:09;2.37;;;2.17;;
16037;SDS011;8123;50.906;6.172;2023-03-19T13:11:57;1.63;;;1.53;;
16037;SDS011;8123;50.906;6.172;2023-03-19T13:19:31;2.17;;;1.97;;
16037;SDS011;8123;50.906;6.172;2023-03-19T13:22:12;1.70;;;1.60;;
16037;SDS011;8123;50.906;6.172;2023-03-19T13:24:41;2.00;;;1.90;;
16037;SDS011;8123;50.906;6.172;2023-03-19T13:27:15;4.20;;;1.33;;
16037;SDS011;8123;50.906;6.172;2023-03-19T13:30:05;2.43;;;2.30;;
16037;SDS011;8123;50.906;6.172;2023-03-19T13:32:44;1.20;;;1.20;;
16037;SDS011;8123;50.906;6.172;2023-03-19T13:35:27;1.80;;;1.37;;
16037;SDS011;8123;50.906;6.172;2023-03-19T13:38:01;0.90;;;0.90;;
16037;SDS011;8123;50.906;6.172;2023-03-19T14:04:49;1.57;;;1.40;;
16037;SDS011;8123;50.906;6.172;2023-03-19T14:07:24;3.23;;;1.43;;
16037;SDS011;8123;50.906;6.172;2023-03-19T14:12:36;2.27;;;1.60;;
16037;SDS011;8123;50.906;6.172;2023-03-19T14:22:36;2.93;;;2.73;;
16037;SDS011;8123;50.906;6.172;2023-03-19T14:25:22;3.47;;;2.73;;
16037;SDS011;8123;50.906;6.172;2023-03-19T14:27:52;2.90;;;2.70;;
16037;SDS011;8123;50.906;6.172;2023-03-19T14:33:04;2.57;;;2.40;;
16037;SDS011;8123;50.906;6.172;2023-03-19T14:35:38;2.90;;;2.70;;
16037;SDS011;8123;50.906;6.172;2023-03-19T14:38:19;2.70;;;2.50;;
16037;SDS011;8123;50.906;6.172;2023-03-19T14:40:49;2.97;;;2.77;;
16037;SDS011;8123;50.906;6.172;2023-03-19T14:43:18;4.00;;;3.70;;
16037;SDS011;8123;50.906;6.172;2023-03-19T14:46:08;3.40;;;3.10;;
16037;SDS011;8123;50.906;6.172;2023-03-19T14:54:44;4.27;;;3.17;;
16037;SDS011;8123;50.906;6.172;2023-03-19T14:57:29;2.60;;;2.50;;
16037;SDS011;8123;50.906;6.172;2023-03-19T14:59:57;3.77;;;3.57;;
16037;SDS011;8123;50.906;6.172;2023-03-19T15:05:07;4.03;;;2.37;;
16037;SDS011;8123;50.906;6.172;2023-03-19T15:07:40;2.57;;;2.47;;
16037;SDS011;8123;50.906;6.172;2023-03-19T15:10:21;3.50;;;3.30;;
16037;SDS011;8123;50.906;6.172;2023-03-19T15:15:47;4.47;;;4.03;;
16037;SDS011;8123;50.906;6.172;2023-03-19T15:18:37;8.10;;;5.67;;
16037;SDS011;8123;50.906;6.172;2023-03-19T15:21:03;8.10;;;5.53;;
16037;SDS011;8123;50.906;6.172;2023-03-19T15:23:30;8.17;;;5.00;;
16037;SDS011;8123;50.906;6.172;2023-03-19T15:26:00;6.27;;;4.10;;
16037;SDS011;8123;50.906;6.172;2023-03-19T15:28:28;8.03;;;4.73;;
16037;SDS011;8123;50.906;6.172;2023-03-19T15:30:59;4.83;;;4.00;;
16037;SDS011;8123;50.906;6.172;2023-03-19T15:33:37;5.30;;;4.50;;
16037;SDS011;8123;50.906;6.172;2023-03-19T15:39:04;4.80;;;3.80;;
16037;SDS011;8123;50.906;6.172;2023-03-19T15:41:34;4.53;;;4.00;;
16037;SDS011;8123;50.906;6.172;2023-03-19T15:44:05;7.63;;;3.83;;
16037;SDS011;8123;50.906;6.172;2023-03-19T15:46:35;5.10;;;4.50;;
16037;SDS011;8123;50.906;6.172;2023-03-19T15:51:33;4.80;;;3.20;;
16037;SDS011;8123;50.906;6.172;2023-03-19T15:54:00;3.40;;;2.90;;
16037;SDS011;8123;50.906;6.172;2023-03-19T15:56:27;2.63;;;2.43;;
16037;SDS011;8123;50.906;6.172;2023-03-19T15:58:54;3.87;;;2.30;;
16037;SDS011;8123;50.906;6.172;2023-03-19T16:01:22;5.50;;;4.00;;
16037;SDS011;8123;50.906;6.172;2023-03-19T16:03:49;6.33;;;4.37;;
16037;SDS011;8123;50.906;6.172;2023-03-19T16:06:19;3.60;;;2.87;;
16037;SDS011;8123;50.906;6.172;2023-03-19T16:08:49;2.80;;;2.43;;
16037;SDS011;8123;50.906;6.172;2023-03-19T16:11:29;2.33;;;2.23;;
16037;SDS011;8123;50.906;6.172;2023-03-19T16:14:09;2.20;;;2.10;;
16037;SDS011;8123;50.906;6.172;2023-03-19T16:16:45;2.97;;;2.77;;
16037;SDS011;8123;50.906;6.172;2023-03-19T16:19:59;2.13;;;2.03;;
16037;SDS011;8123;50.906;6.172;2023-03-19T16:22:03;2.10;;;2.00;;
16037;SDS011;8123;50.906;6.172;2023-03-19T16:24:39;2.60;;;2.07;;
16037;SDS011;8123;50.906;6.172;2023-03-19T16:27:08;5.53;;;3.17;;
16037;SDS011;8123;50.906;6.172;2023-03-19T16:29:43;3.63;;;2.40;;
16037;SDS011;8123;50.906;6.172;2023-03-19T16:34:49;4.60;;;2.30;;
16037;SDS011;8123;50.906;6.172;2023-03-19T16:47:52;4.93;;;2.47;;
16037;SDS011;8123;50.906;6.172;2023-03-19T16:50:20;2.80;;;2.60;;
16037;SDS011;8123;50.906;6.172;2023-03-19T16:52:47;5.57;;;3.20;;
16037;SDS011;8123;50.906;6.172;2023-03-19T16:55:18;5.63;;;3.23;;
16037;SDS011;8123;50.906;6.172;2023-03-19T16:57:55;5.77;;;3.03;;
16037;SDS011;8123;50.906;6.172;2023-03-19T17:00:23;3.67;;;2.63;;
16037;SDS011;8123;50.906;6.172;2023-03-19T17:02:53;3.23;;;2.97;;
16037;SDS011;8123;50.906;6.172;2023-03-19T17:05:22;4.37;;;2.93;;
16037;SDS011;8123;50.906;6.172;2023-03-19T17:07:49;5.33;;;3.00;;
16037;SDS011;8123;50.906;6.172;2023-03-19T17:10:16;5.53;;;3.00;;
16037;SDS011;8123;50.906;6.172;2023-03-19T17:12:44;6.13;;;3.60;;
16037;SDS011;8123;50.906;6.172;2023-03-19T17:17:48;4.07;;;3.43;;
16037;SDS011;8123;50.906;6.172;2023-03-19T17:20:18;4.40;;;3.30;;
16037;SDS011;8123;50.906;6.172;2023-03-19T17:23:11;4.37;;;3.57;;
16037;SDS011;8123;50.906;6.172;2023-03-19T17:25:38;4.97;;;3.47;;
16037;SDS011;8123;50.906;6.172;2023-03-19T17:28:03;5.63;;;4.10;;
16037;SDS011;8123;50.906;6.172;2023-03-19T17:30:30;5.50;;;4.00;;
16037;SDS011;8123;50.906;6.172;2023-03-19T17:32:56;7.93;;;4.33;;
16037;SDS011;8123;50.906;6.172;2023-03-19T17:35:22;7.90;;;4.10;;
16037;SDS011;8123;50.906;6.172;2023-03-19T17:37:48;4.67;;;3.87;;
16037;SDS011;8123;50.906;6.172;2023-03-19T17:40:18;8.23;;;3.87;;
16037;SDS011;8123;50.906;6.172;2023-03-19T17:42:44;14.10;;;3.90;;
16037;SDS011;8123;50.906;6.172;2023-03-19T17:45:14;4.77;;;4.37;;
16037;SDS011;8123;50.906;6.172;2023-03-19T17:47:41;11.03;;;4.00;;